createdAt,value
2022-10-24T00:02:24.659Z,18.80
2022-10-24T00:04:51.102Z,14.23
2022-10-24T00:07:17.563Z,12.68
2022-10-24T00:09:43.985Z,15.65
2022-10-24T00:12:10.593Z,18.17
2022-10-24T00:14:37.827Z,16.00
2022-10-24T00:17:04.713Z,14.80
2022-10-24T00:19:31.074Z,13.95
2022-10-24T00:21:57.487Z,21.35
2022-10-24T00:24:25.118Z,19.85
2022-10-24T00:26:52.294Z,25.02
2022-10-24T00:29:18.919Z,22.27
2022-10-24T00:31:45.351Z,19.45
2022-10-24T00:34:12.049Z,27.58
2022-10-24T00:36:38.665Z,20.77
2022-10-24T00:39:05.119Z,28.42
2022-10-24T00:41:38.242Z,70.55
2022-10-24T00:44:33.093Z,32.95
2022-10-24T00:47:08.080Z,20.95
2022-10-24T00:50:02.034Z,24.75
2022-10-24T00:52:34.534Z,17.35
2022-10-24T00:55:02.910Z,8.57
2022-10-24T00:57:50.152Z,10.70
2022-10-24T01:00:21.341Z,7.72
2022-10-24T01:05:15.449Z,11.93
2022-10-24T01:08:05.666Z,9.95
2022-10-24T01:10:48.892Z,7.00
2022-10-24T01:13:41.627Z,7.05
2022-10-24T01:16:18.433Z,7.88
2022-10-24T01:21:30.623Z,15.10
2022-10-24T01:24:31.103Z,12.48
2022-10-24T01:27:19.280Z,13.77
2022-10-24T01:29:53.054Z,12.60
2022-10-24T01:32:36.767Z,16.40
2022-10-24T01:35:16.762Z,11.52
2022-10-24T01:37:53.148Z,17.73
2022-10-24T01:40:29.932Z,19.60
2022-10-24T01:43:00.708Z,16.88
2022-10-24T01:45:33.130Z,12.55
2022-10-24T01:48:03.443Z,14.70
2022-10-24T01:50:32.543Z,26.63
2022-10-24T01:52:59.676Z,8.60
2022-10-24T01:55:26.102Z,13.82
2022-10-24T01:57:52.463Z,8.65
2022-10-24T02:00:22.128Z,14.20
2022-10-24T02:02:59.968Z,8.13
2022-10-24T02:05:34.663Z,11.60
2022-10-24T02:08:06.245Z,6.85
2022-10-24T02:10:38.331Z,5.20
2022-10-24T02:13:42.216Z,20.83
2022-10-24T02:16:09.537Z,33.72
2022-10-24T02:18:35.981Z,100.82
2022-10-24T02:21:19.368Z,31.63
2022-10-24T02:24:02.736Z,71.40
2022-10-24T02:26:46.842Z,78.03
2022-10-24T02:29:24.682Z,48.70
2022-10-24T02:31:55.113Z,47.75
2022-10-24T02:34:24.195Z,25.80
2022-10-24T02:36:53.560Z,45.28
2022-10-24T02:39:21.009Z,64.60
2022-10-24T02:41:50.069Z,88.38
2022-10-24T02:44:19.123Z,58.13
2022-10-24T02:46:46.929Z,48.08
2022-10-24T02:49:13.628Z,29.55
2022-10-24T02:51:43.626Z,9.32
2022-10-24T02:54:11.060Z,9.55
2022-10-24T02:56:43.188Z,8.02
2022-10-24T03:01:41.011Z,6.90
2022-10-24T03:04:07.448Z,6.93
2022-10-24T03:06:33.827Z,13.50
2022-10-24T03:09:00.264Z,13.75
2022-10-24T03:11:26.900Z,6.97
2022-10-24T03:13:53.314Z,12.25
2022-10-24T03:16:19.681Z,11.18
2022-10-24T03:18:46.250Z,14.38
2022-10-24T03:21:12.958Z,13.25
2022-10-24T03:23:39.383Z,26.05
2022-10-24T03:26:06.054Z,28.55
2022-10-24T03:28:34.704Z,23.83
2022-10-24T03:31:01.078Z,20.92
2022-10-24T03:33:27.470Z,17.98
2022-10-24T03:35:54.721Z,19.00
2022-10-24T03:38:22.735Z,20.88
2022-10-24T03:40:49.867Z,32.60
2022-10-24T03:43:16.866Z,18.35
2022-10-24T03:45:43.552Z,16.33
2022-10-24T03:48:09.989Z,22.05
2022-10-24T03:50:36.428Z,16.10
2022-10-24T03:53:03.724Z,13.18
2022-10-24T03:55:30.146Z,8.75
2022-10-24T03:57:56.739Z,9.57
2022-10-24T04:00:23.492Z,15.52
2022-10-24T04:02:52.628Z,7.05
2022-10-24T04:05:19.036Z,7.65
2022-10-24T04:07:45.603Z,5.05
2022-10-24T04:10:12.263Z,12.18
2022-10-24T04:12:38.722Z,4.80
2022-10-24T04:15:05.773Z,6.07
2022-10-24T04:17:32.767Z,10.10
2022-10-24T04:19:59.156Z,8.40
2022-10-24T04:22:25.582Z,13.80
2022-10-24T04:24:51.958Z,10.77
2022-10-24T04:27:18.454Z,8.65
2022-10-24T04:29:44.842Z,18.00
2022-10-24T04:32:11.203Z,14.70
2022-10-24T04:34:37.581Z,8.68
2022-10-24T04:37:04.405Z,11.23
2022-10-24T04:39:30.795Z,15.35
2022-10-24T04:41:57.301Z,14.65
2022-10-24T04:44:23.835Z,14.60
2022-10-24T04:46:51.546Z,12.45
2022-10-24T04:49:18.354Z,13.32
2022-10-24T04:51:44.815Z,15.02
2022-10-24T04:54:11.262Z,17.08
2022-10-24T04:56:37.714Z,22.35
2022-10-24T04:59:04.324Z,16.45
2022-10-24T05:01:30.756Z,18.52
2022-10-24T05:03:57.303Z,12.65
2022-10-24T05:06:23.721Z,13.07
2022-10-24T05:08:50.094Z,19.70
2022-10-24T05:11:16.612Z,13.55
2022-10-24T05:13:43.053Z,15.30
2022-10-24T05:16:09.566Z,14.82
2022-10-24T05:18:35.979Z,17.15
2022-10-24T05:21:02.441Z,14.20
2022-10-24T05:23:28.901Z,11.85
2022-10-24T05:25:55.394Z,20.85
2022-10-24T05:28:21.860Z,23.90
2022-10-24T05:30:48.266Z,19.15
2022-10-24T05:33:14.708Z,23.30
2022-10-24T05:35:41.687Z,18.35
2022-10-24T05:38:08.298Z,23.13
2022-10-24T05:40:34.723Z,23.52
2022-10-24T05:43:01.117Z,18.83
2022-10-24T05:45:27.478Z,27.90
2022-10-24T05:47:53.834Z,21.55
2022-10-24T05:50:20.249Z,23.65
2022-10-24T05:52:47.313Z,19.08
2022-10-24T05:55:16.995Z,18.75
2022-10-24T05:57:45.631Z,20.40
2022-10-24T06:00:14.962Z,19.17
2022-10-24T06:02:42.127Z,21.98
2022-10-24T06:05:09.909Z,23.25
2022-10-24T06:07:37.124Z,24.85
2022-10-24T06:10:04.919Z,29.60
2022-10-24T06:12:31.280Z,25.60
2022-10-24T06:14:58.840Z,17.70
2022-10-24T06:17:25.530Z,19.70
2022-10-24T06:19:51.970Z,28.15
2022-10-24T06:22:19.646Z,25.00
2022-10-24T06:24:46.061Z,29.83
2022-10-24T06:27:12.450Z,19.15
2022-10-24T06:29:38.799Z,24.80
2022-10-24T06:32:05.318Z,30.00
2022-10-24T06:34:31.872Z,24.38
2022-10-24T06:36:58.765Z,19.42
2022-10-24T06:39:25.214Z,26.63
2022-10-24T06:41:51.609Z,17.70
2022-10-24T06:44:18.010Z,26.52
2022-10-24T06:46:44.666Z,24.67
2022-10-24T06:49:13.114Z,20.98
2022-10-24T06:51:40.889Z,18.67
2022-10-24T06:54:07.599Z,25.77
2022-10-24T06:56:34.068Z,28.65
2022-10-24T06:59:00.454Z,22.08
2022-10-24T07:01:27.756Z,21.95
2022-10-24T07:03:54.699Z,23.38
2022-10-24T07:06:29.633Z,26.05
2022-10-24T07:08:59.214Z,19.95
2022-10-24T07:11:26.778Z,27.27
2022-10-24T07:13:55.352Z,27.27
2022-10-24T07:16:25.361Z,23.77
2022-10-24T07:18:51.764Z,21.73
2022-10-24T07:21:21.187Z,22.58
2022-10-24T07:23:47.709Z,19.17
2022-10-24T07:26:16.516Z,21.23
2022-10-24T07:28:46.396Z,28.50
2022-10-24T07:31:16.316Z,31.13
2022-10-24T07:33:42.898Z,28.92
2022-10-24T07:36:09.792Z,27.45
2022-10-24T07:38:37.204Z,27.05
2022-10-24T07:41:05.250Z,26.73
2022-10-24T07:43:31.674Z,28.52
2022-10-24T07:45:58.089Z,22.58
2022-10-24T07:48:24.635Z,23.90
2022-10-24T07:50:51.066Z,35.15
2022-10-24T07:53:17.438Z,33.08
2022-10-24T07:55:44.734Z,33.00
2022-10-24T07:58:12.097Z,27.17
2022-10-24T08:00:44.055Z,34.25
2022-10-24T08:03:11.516Z,23.27
2022-10-24T08:05:39.706Z,26.15
2022-10-24T08:10:53.255Z,22.60
2022-10-24T08:13:20.179Z,14.48
2022-10-24T08:15:46.799Z,22.83
2022-10-24T08:18:13.233Z,15.05
2022-10-24T08:20:40.049Z,14.95
2022-10-24T08:23:06.794Z,17.10
2022-10-24T08:25:33.399Z,13.52
2022-10-24T08:28:00.928Z,14.35
2022-10-24T08:30:29.433Z,12.70
2022-10-24T08:32:55.925Z,11.95
2022-10-24T08:35:22.394Z,13.52
2022-10-24T08:37:48.973Z,16.88
2022-10-24T08:40:19.127Z,17.38
2022-10-24T08:42:48.037Z,15.95
2022-10-24T08:45:35.610Z,16.23
2022-10-24T08:48:08.339Z,23.20
2022-10-24T08:50:36.270Z,21.20
2022-10-24T08:53:05.542Z,19.92
2022-10-24T08:55:53.391Z,16.50
2022-10-24T08:58:35.312Z,19.27
2022-10-24T09:01:07.415Z,17.35
2022-10-24T09:03:56.107Z,14.70
2022-10-24T09:06:26.101Z,13.48
2022-10-24T09:08:55.689Z,11.02
2022-10-24T09:11:37.278Z,11.98
2022-10-24T09:14:18.638Z,24.90
2022-10-24T09:16:49.592Z,17.75
2022-10-24T09:19:20.584Z,13.10
2022-10-24T09:21:47.998Z,19.40
2022-10-24T09:24:32.394Z,20.88
2022-10-24T09:27:00.442Z,13.73
2022-10-24T09:29:32.353Z,12.85
2022-10-24T09:31:59.478Z,14.98
2022-10-24T09:34:26.070Z,11.00
2022-10-24T09:36:52.566Z,10.77
2022-10-24T09:39:28.117Z,9.55
2022-10-24T09:41:55.745Z,18.45
2022-10-24T09:44:33.103Z,12.27
2022-10-24T09:47:01.165Z,15.98
2022-10-24T09:49:46.500Z,15.65
2022-10-24T09:52:26.526Z,14.38
2022-10-24T09:55:21.464Z,16.95
2022-10-24T09:57:53.670Z,10.07
2022-10-24T10:00:29.207Z,9.90
2022-10-24T10:03:04.863Z,12.88
2022-10-24T10:05:54.507Z,13.70
2022-10-24T10:08:30.283Z,16.42
2022-10-24T10:10:58.701Z,16.35
2022-10-24T10:13:27.701Z,9.45
2022-10-24T10:15:59.158Z,14.18
2022-10-24T10:18:43.084Z,12.45
2022-10-24T10:21:16.201Z,8.57
2022-10-24T10:23:44.582Z,10.40
2022-10-24T10:26:24.672Z,9.65
2022-10-24T10:29:01.482Z,9.02
2022-10-24T10:31:39.107Z,7.32
2022-10-24T10:34:32.240Z,6.45
2022-10-24T10:37:06.293Z,12.38
2022-10-24T10:39:41.877Z,6.05
2022-10-24T10:42:19.011Z,6.72
2022-10-24T10:44:54.999Z,8.25
2022-10-24T10:47:39.880Z,4.18
2022-10-24T10:50:26.539Z,8.35
2022-10-24T10:52:58.880Z,8.05
2022-10-24T10:55:42.321Z,12.02
2022-10-24T10:58:17.757Z,8.70
2022-10-24T11:00:55.185Z,8.55
2022-10-24T11:03:24.603Z,4.00
2022-10-24T11:06:15.702Z,8.18
2022-10-24T11:09:09.701Z,8.43
2022-10-24T11:11:41.551Z,6.38
2022-10-24T11:14:38.754Z,9.57
2022-10-24T11:17:16.654Z,6.53
2022-10-24T11:20:08.489Z,9.50
2022-10-24T11:22:48.539Z,8.38
2022-10-24T11:25:34.880Z,11.02
2022-10-24T11:28:12.334Z,7.13
2022-10-24T11:30:49.687Z,7.82
2022-10-24T11:33:24.890Z,6.35
2022-10-24T11:36:08.201Z,3.63
2022-10-24T11:38:40.750Z,5.00
2022-10-24T11:41:23.910Z,4.43
2022-10-24T11:43:54.902Z,6.50
2022-10-24T11:46:30.703Z,11.93
2022-10-24T11:49:08.388Z,9.88
2022-10-24T11:51:40.428Z,12.32
2022-10-24T11:54:21.864Z,7.05
2022-10-24T11:57:11.366Z,7.63
2022-10-24T11:59:40.984Z,13.98
2022-10-24T12:02:50.160Z,7.88
2022-10-24T12:05:34.770Z,7.00
2022-10-24T12:08:21.949Z,7.85
2022-10-24T12:11:06.429Z,4.65
2022-10-24T12:16:59.500Z,7.78
2022-10-24T12:19:27.941Z,5.18
2022-10-24T12:21:58.519Z,6.22
2022-10-24T12:24:30.021Z,4.90
2022-10-24T12:27:02.754Z,4.68
2022-10-24T12:29:33.545Z,6.13
2022-10-24T12:32:24.159Z,6.68
2022-10-24T12:35:25.297Z,4.63
2022-10-24T12:37:46.932Z,7.75
2022-10-24T12:40:52.008Z,4.20
2022-10-24T12:43:30.575Z,4.68
2022-10-24T12:46:01.539Z,5.18
2022-10-24T12:48:34.041Z,5.60
2022-10-24T12:51:26.345Z,3.60
2022-10-24T12:54:18.176Z,4.07
2022-10-24T12:56:51.150Z,3.05
2022-10-24T12:59:22.138Z,5.57
2022-10-24T13:01:51.382Z,5.13
2022-10-24T13:04:51.423Z,4.82
2022-10-24T13:07:38.223Z,4.43
2022-10-24T13:10:15.233Z,8.35
2022-10-24T13:12:44.666Z,6.93
2022-10-24T13:15:30.218Z,5.20
2022-10-24T13:18:11.966Z,3.55
2022-10-24T13:20:44.438Z,3.28
2022-10-24T13:23:16.349Z,4.72
2022-10-24T13:25:44.067Z,7.18
2022-10-24T13:28:19.700Z,5.65
2022-10-24T13:30:49.616Z,3.00
2022-10-24T13:33:32.604Z,5.90
2022-10-24T13:36:26.985Z,5.18
2022-10-24T13:38:57.703Z,7.57
2022-10-24T13:41:44.205Z,4.30
2022-10-24T13:44:28.672Z,4.95
2022-10-24T13:47:19.931Z,2.55
2022-10-24T13:49:53.460Z,6.38
2022-10-24T13:52:49.153Z,7.57
2022-10-24T13:55:23.807Z,3.40
2022-10-24T13:58:00.371Z,6.70
2022-10-24T14:00:39.614Z,4.32
2022-10-24T14:03:15.532Z,8.23
2022-10-24T14:05:51.654Z,4.10
2022-10-24T14:08:33.761Z,5.53
2022-10-24T14:11:04.702Z,3.58
2022-10-24T14:13:33.934Z,8.13
2022-10-24T14:16:03.501Z,5.05
2022-10-24T14:18:30.943Z,6.35
2022-10-24T14:21:00.692Z,8.43
2022-10-24T14:23:30.971Z,12.40
2022-10-24T14:26:02.033Z,6.97
2022-10-24T14:31:02.597Z,5.68
2022-10-24T14:33:41.590Z,11.57
2022-10-24T14:36:08.774Z,6.10
2022-10-24T14:38:36.190Z,9.20
2022-10-24T14:41:09.029Z,5.57
2022-10-24T14:43:41.087Z,4.97
2022-10-24T14:46:13.558Z,8.48
2022-10-24T14:48:42.980Z,5.65
2022-10-24T14:51:18.942Z,10.98
2022-10-24T14:53:46.079Z,11.63
2022-10-24T14:56:36.502Z,9.73
2022-10-24T14:59:06.495Z,3.97
2022-10-24T15:01:33.142Z,2.90
2022-10-24T15:04:02.469Z,4.07
2022-10-24T15:06:37.809Z,5.10
2022-10-24T15:09:24.687Z,5.53
2022-10-24T15:12:01.916Z,3.78
2022-10-24T15:14:47.548Z,1.58
2022-10-24T15:17:16.978Z,4.50
2022-10-24T15:19:45.968Z,6.10
2022-10-24T15:22:26.864Z,3.95
2022-10-24T15:24:55.601Z,4.30
2022-10-24T15:27:27.466Z,5.60
2022-10-24T15:29:54.365Z,12.20
2022-10-24T15:32:20.831Z,6.78
2022-10-24T15:34:47.318Z,7.85
2022-10-24T15:37:23.445Z,7.25
2022-10-24T15:39:52.643Z,5.68
2022-10-24T15:42:21.602Z,5.63
2022-10-24T15:44:49.165Z,6.20
2022-10-24T15:47:15.677Z,4.78
2022-10-24T15:49:42.122Z,8.10
2022-10-24T15:52:15.479Z,6.30
2022-10-24T15:54:42.086Z,8.23
2022-10-24T15:57:12.649Z,9.02
2022-10-24T15:59:39.564Z,7.75
2022-10-24T16:02:16.086Z,7.05
2022-10-24T16:04:42.654Z,5.63
2022-10-24T16:07:10.471Z,5.20
2022-10-24T16:09:37.258Z,5.80
2022-10-24T16:12:03.857Z,4.32
2022-10-24T16:14:30.421Z,5.75
2022-10-24T16:16:57.125Z,7.47
2022-10-24T16:19:26.330Z,6.20
2022-10-24T16:21:54.311Z,11.43
2022-10-24T16:24:20.720Z,7.75
2022-10-24T16:26:47.104Z,6.93
2022-10-24T16:29:13.490Z,6.97
2022-10-24T16:31:39.971Z,7.32
2022-10-24T16:34:07.265Z,7.82
2022-10-24T16:36:33.887Z,11.90
2022-10-24T16:39:00.510Z,9.35
2022-10-24T16:41:27.334Z,3.80
2022-10-24T16:43:56.136Z,9.50
2022-10-24T16:46:24.030Z,5.28
2022-10-24T16:48:50.599Z,10.15
2022-10-24T16:51:20.002Z,6.80
2022-10-24T16:53:46.394Z,6.43
2022-10-24T16:56:15.465Z,8.63
2022-10-24T16:58:42.159Z,13.23
2022-10-24T17:01:12.420Z,6.57
2022-10-24T17:03:42.129Z,11.40
2022-10-24T17:06:09.046Z,7.85
2022-10-24T17:08:35.526Z,10.57
2022-10-24T17:11:02.025Z,7.20
2022-10-24T17:13:29.047Z,9.15
2022-10-24T17:15:56.465Z,8.80
2022-10-24T17:18:25.251Z,7.57
2022-10-24T17:20:54.393Z,10.48
2022-10-24T17:23:22.820Z,8.18
2022-10-24T17:25:49.448Z,8.85
2022-10-24T17:28:16.408Z,7.97
2022-10-24T17:30:43.493Z,9.02
2022-10-24T17:33:11.412Z,10.57
2022-10-24T17:35:42.085Z,10.00
2022-10-24T17:38:22.050Z,8.57
2022-10-24T17:40:49.495Z,8.45
2022-10-24T17:43:23.246Z,8.20
2022-10-24T17:45:49.966Z,5.97
2022-10-24T17:48:17.291Z,11.90
2022-10-24T17:50:44.364Z,11.77
2022-10-24T17:53:15.263Z,8.07
2022-10-24T17:55:47.185Z,7.65
2022-10-24T17:58:15.553Z,6.15
2022-10-24T18:00:42.776Z,7.45
2022-10-24T18:03:09.409Z,11.05
2022-10-24T18:05:38.069Z,17.45
2022-10-24T18:08:23.884Z,17.63
2022-10-24T18:10:51.132Z,8.32
2022-10-24T18:13:18.174Z,11.90
2022-10-24T18:16:03.350Z,16.13
2022-10-24T18:18:30.297Z,9.70
2022-10-24T18:21:10.603Z,11.27
2022-10-24T18:23:38.363Z,12.43
2022-10-24T18:26:31.466Z,9.10
2022-10-24T18:28:58.625Z,10.98
2022-10-24T18:31:27.839Z,12.35
2022-10-24T18:34:04.735Z,14.43
2022-10-24T18:36:41.682Z,14.98
2022-10-24T18:39:10.165Z,11.50
2022-10-24T18:41:46.622Z,10.98
2022-10-24T18:44:23.201Z,12.75
2022-10-24T18:46:57.229Z,13.27
2022-10-24T18:49:24.108Z,10.73
2022-10-24T18:52:03.852Z,17.35
2022-10-24T18:54:30.782Z,14.07
2022-10-24T18:56:59.021Z,11.35
2022-10-24T18:59:25.835Z,19.08
2022-10-24T19:02:19.413Z,18.17
2022-10-24T19:05:01.431Z,15.15
2022-10-24T19:07:55.224Z,7.70
2022-10-24T19:10:30.545Z,17.30
2022-10-24T19:13:04.345Z,13.52
2022-10-24T19:15:31.448Z,17.90
2022-10-24T19:18:00.804Z,13.95
2022-10-24T19:20:35.720Z,11.88
2022-10-24T19:23:05.533Z,10.15
2022-10-24T19:25:40.509Z,11.65
2022-10-24T19:28:14.322Z,8.07
2022-10-24T19:30:50.243Z,10.50
2022-10-24T19:33:19.018Z,11.60
2022-10-24T19:36:01.535Z,11.57
2022-10-24T19:38:32.745Z,9.23
2022-10-24T19:41:03.102Z,12.00
2022-10-24T19:43:34.860Z,7.78
2022-10-24T19:46:18.742Z,12.38
2022-10-24T19:48:48.943Z,16.58
2022-10-24T19:51:18.990Z,10.40
2022-10-24T19:53:56.944Z,14.20
2022-10-24T19:56:26.175Z,9.90
2022-10-24T19:58:53.927Z,8.35
2022-10-24T20:01:23.546Z,7.30
2022-10-24T20:03:51.302Z,13.25
2022-10-24T20:06:19.171Z,7.63
2022-10-24T20:08:46.988Z,12.95
2022-10-24T20:11:15.522Z,10.55
2022-10-24T20:13:42.902Z,7.72
2022-10-24T20:16:10.505Z,11.32
2022-10-24T20:18:38.371Z,13.23
2022-10-24T20:21:07.759Z,10.15
2022-10-24T20:23:35.616Z,13.70
2022-10-24T20:26:07.459Z,7.85
2022-10-24T20:28:43.207Z,11.00
2022-10-24T20:31:21.559Z,7.88
2022-10-24T20:33:48.701Z,10.98
2022-10-24T20:36:15.073Z,13.68
2022-10-24T20:38:41.638Z,9.80
2022-10-24T20:41:08.444Z,14.00
2022-10-24T20:43:34.832Z,16.90
2022-10-24T20:46:05.057Z,15.65
2022-10-24T20:48:35.071Z,8.57
2022-10-24T20:51:10.768Z,12.05
2022-10-24T20:53:37.625Z,13.38
2022-10-24T20:56:06.409Z,10.30
2022-10-24T20:58:35.467Z,10.18
2022-10-24T21:01:26.269Z,12.38
2022-10-24T21:03:53.731Z,7.65
2022-10-24T21:06:23.030Z,11.18
2022-10-24T21:08:51.032Z,17.50
2022-10-24T21:11:24.563Z,21.40
2022-10-24T21:13:59.397Z,16.83
2022-10-24T21:16:26.539Z,14.18
2022-10-24T21:18:53.747Z,11.43
2022-10-24T21:21:21.115Z,15.10
2022-10-24T21:23:52.849Z,13.88
2022-10-24T21:26:20.120Z,16.65
2022-10-24T21:28:46.589Z,21.30
2022-10-24T21:31:15.556Z,13.43
2022-10-24T21:33:42.390Z,12.55
2022-10-24T21:36:11.841Z,11.57
2022-10-24T21:38:38.545Z,16.63
2022-10-24T21:41:07.374Z,12.90
2022-10-24T21:43:36.093Z,10.63
2022-10-24T21:46:18.577Z,12.15
2022-10-24T21:48:46.301Z,19.33
2022-10-24T21:51:21.576Z,19.13
2022-10-24T21:53:53.506Z,13.10
2022-10-24T21:56:22.373Z,11.13
2022-10-24T21:58:50.693Z,10.38
2022-10-24T22:01:20.049Z,8.05
2022-10-24T22:03:46.720Z,12.77
2022-10-24T22:06:16.603Z,15.50
2022-10-24T22:08:43.912Z,9.60
2022-10-24T22:11:12.830Z,7.53
2022-10-24T22:13:39.778Z,9.57
2022-10-24T22:16:07.980Z,18.67
2022-10-24T22:18:35.490Z,13.18
2022-10-24T22:21:03.004Z,10.70
2022-10-24T22:23:29.848Z,10.05
2022-10-24T22:25:58.032Z,5.85
2022-10-24T22:28:25.031Z,9.38
2022-10-24T22:30:51.801Z,12.45
2022-10-24T22:33:35.118Z,14.10
2022-10-24T22:36:17.866Z,10.02
2022-10-24T22:38:44.429Z,12.48
2022-10-24T22:41:11.137Z,10.63
2022-10-24T22:43:38.232Z,11.35
2022-10-24T22:46:32.598Z,11.73
2022-10-24T22:49:13.398Z,6.75
2022-10-24T22:51:40.054Z,8.52
2022-10-24T22:54:16.613Z,9.02
2022-10-24T22:56:43.327Z,10.77
2022-10-24T22:59:10.004Z,9.68
2022-10-24T23:01:54.793Z,12.15
2022-10-24T23:04:29.736Z,7.28
2022-10-24T23:07:02.626Z,8.90
2022-10-24T23:09:29.006Z,13.32
2022-10-24T23:11:55.709Z,13.35
2022-10-24T23:14:22.335Z,7.53
2022-10-24T23:16:58.803Z,8.88
2022-10-24T23:19:27.927Z,7.15
2022-10-24T23:22:11.381Z,4.25
2022-10-24T23:24:38.013Z,7.65
2022-10-24T23:27:13.242Z,7.28
2022-10-24T23:29:45.949Z,6.57
2022-10-24T23:32:22.873Z,10.85
2022-10-24T23:34:50.294Z,6.18
2022-10-24T23:37:38.556Z,9.40
2022-10-24T23:40:24.824Z,5.32
2022-10-24T23:42:52.306Z,6.70
2022-10-24T23:45:21.951Z,4.10
2022-10-24T23:48:03.330Z,5.15
2022-10-24T23:51:08.470Z,9.30
2022-10-24T23:53:53.594Z,5.38
2022-10-24T23:56:25.498Z,6.68
2022-10-24T23:58:52.179Z,5.25
